Edwards Air Force Base
KEDW : now visible

Airfield :











YOU CAN JOIN US ON...

 
LOGIN :

Register | Disclaimer

   EN    FR    IT 

 









Legend :    VFR   Marginal VFR   IFR   Intensive IFR   Very Intensive IFR
Visi :
Ceiling :
>= 8 km
>= 3000ft
5 to 8 km
1000 to 3000 ft
1500m to 5 km
500 to 1000 ft
800 to 1500m
200 to 500 ft
< 800m
< 200 ft
Symbols :   Thunderstorms  Fog  Heavy snow  Heavy precipitations  Wind > 20 kt






- Airport Elevation : 2312 ft


KEDW - Edwards Air Force Base

CURRENT METAR :
  • 311958Z 00000KT 90SM FEW170 SCT200 BKN300 27/01 A2990 RMK AO2A SLP107 T02670011

EXPIRED METARs :
  • 311858Z 00000KT 90SM FEW160 SCT190 BKN300 25/04 A2991 RMK AO2A SLP112 T02510037
  • 311758Z 00000KT 90SM SCT190 BKN300 24/04 A2992 RMK AO2A SLP115 T02350039 10236 20118 50001

TAF TAF KEDW
Valid from the 31 at 17:00 until the 01 at 23:00 UTC


311700Z 3117/0123 24012KT 9999 SCT250 BKN300 QNH2992INS
BECMG 3117/3118 24015G25KT 9999 SCT250 BKN300 520009 QNH2990INS
BECMG 3120/3121 23020G30KT 9999 SCT250 BKN300 520009 QNH2988INS
BECMG 0101/0102 24015G25KT 9999 SCT250 SCT300 520009 QNH2989INS
BECMG 0102/0103 24012G18KT 9999 SCT250 SCT300 QNH2992INS
BECMG 0104/0105 23012KT 9999 SCT250 SCT300 QNH2994INS
BECMG 0120/0121 25012G18KT 9999 SCT250 SCT300 QNH2989INS TX31/3122Z TN13/0113Z LAST NO AMDS AFT 3123 NEXT 0113
KZLA FIR / North America



MET'MAP, your aeronautical weather chart ! - Copyright ORBIFLY December 2007 - Disclaimer

ORBIFLY MET'MAP TEAM :

Programming & Development : Alexandra Zaïnal
Concept & original design : Baudouin d'Aumeries
Assistance for programming : Marc-Olivier Méhu
Technical & hardware support : Manuel Goepfert

Contact : metmap@orbifly.com




SOURCES & CREDITS :

   NOAA       Earth
Advisory